sensor_id;sensor_type;location;lat;lon;timestamp;P1;durP1;ratioP1;P2;durP2;ratioP2
59972;SDS011;55298;-36.624;-64.282;2023-10-08T00:01:02;5.63;;;4.50;;
59972;SDS011;55298;-36.624;-64.282;2023-10-08T00:03:33;8.27;;;4.70;;
59972;SDS011;55298;-36.624;-64.282;2023-10-08T00:06:03;8.30;;;4.20;;
59972;SDS011;55298;-36.624;-64.282;2023-10-08T00:08:33;6.03;;;4.53;;
59972;SDS011;55298;-36.624;-64.282;2023-10-08T00:11:00;6.22;;;3.45;;
59972;SDS011;55298;-36.624;-64.282;2023-10-08T00:13:32;6.10;;;3.83;;
59972;SDS011;55298;-36.624;-64.282;2023-10-08T00:16:06;6.63;;;4.10;;
59972;SDS011;55298;-36.624;-64.282;2023-10-08T00:18:43;3.53;;;3.33;;
59972;SDS011;55298;-36.624;-64.282;2023-10-08T00:21:15;12.48;;;7.78;;
59972;SDS011;55298;-36.624;-64.282;2023-10-08T00:23:50;6.45;;;4.40;;
59972;SDS011;55298;-36.624;-64.282;2023-10-08T00:26:18;9.13;;;6.10;;
59972;SDS011;55298;-36.624;-64.282;2023-10-08T00:28:57;9.77;;;6.47;;
59972;SDS011;55298;-36.624;-64.282;2023-10-08T00:31:32;5.30;;;4.80;;
59972;SDS011;55298;-36.624;-64.282;2023-10-08T00:34:04;8.23;;;6.00;;
59972;SDS011;55298;-36.624;-64.282;2023-10-08T00:36:40;7.00;;;4.93;;
59972;SDS011;55298;-36.624;-64.282;2023-10-08T00:39:10;9.27;;;4.53;;
59972;SDS011;55298;-36.624;-64.282;2023-10-08T00:41:41;8.65;;;5.30;;
59972;SDS011;55298;-36.624;-64.282;2023-10-08T00:44:11;7.25;;;4.85;;
59972;SDS011;55298;-36.624;-64.282;2023-10-08T00:46:49;10.50;;;5.40;;
59972;SDS011;55298;-36.624;-64.282;2023-10-08T00:49:17;11.40;;;7.65;;
59972;SDS011;55298;-36.624;-64.282;2023-10-08T00:51:51;9.35;;;5.97;;
59972;SDS011;55298;-36.624;-64.282;2023-10-08T00:54:31;14.07;;;8.68;;
59972;SDS011;55298;-36.624;-64.282;2023-10-08T00:57:05;26.48;;;19.25;;
59972;SDS011;55298;-36.624;-64.282;2023-10-08T00:59:33;10.65;;;8.70;;
59972;SDS011;55298;-36.624;-64.282;2023-10-08T01:02:11;12.80;;;6.38;;
59972;SDS011;55298;-36.624;-64.282;2023-10-08T01:04:45;7.80;;;5.32;;
59972;SDS011;55298;-36.624;-64.282;2023-10-08T01:07:16;7.93;;;5.55;;
59972;SDS011;55298;-36.624;-64.282;2023-10-08T01:09:46;15.07;;;7.78;;
59972;SDS011;55298;-36.624;-64.282;2023-10-08T01:12:19;6.43;;;4.60;;
59972;SDS011;55298;-36.624;-64.282;2023-10-08T01:14:53;8.90;;;6.07;;
59972;SDS011;55298;-36.624;-64.282;2023-10-08T01:17:30;6.57;;;4.95;;
59972;SDS011;55298;-36.624;-64.282;2023-10-08T01:20:04;8.82;;;4.70;;
59972;SDS011;55298;-36.624;-64.282;2023-10-08T01:22:47;7.35;;;4.82;;
59972;SDS011;55298;-36.624;-64.282;2023-10-08T01:25:16;6.78;;;5.13;;
59972;SDS011;55298;-36.624;-64.282;2023-10-08T01:27:49;6.90;;;4.22;;
59972;SDS011;55298;-36.624;-64.282;2023-10-08T01:30:27;9.20;;;4.65;;
59972;SDS011;55298;-36.624;-64.282;2023-10-08T01:33:01;6.85;;;5.75;;
59972;SDS011;55298;-36.624;-64.282;2023-10-08T01:35:29;7.00;;;5.20;;
59972;SDS011;55298;-36.624;-64.282;2023-10-08T01:37:57;7.47;;;4.97;;
59972;SDS011;55298;-36.624;-64.282;2023-10-08T01:40:26;8.75;;;5.38;;
59972;SDS011;55298;-36.624;-64.282;2023-10-08T01:42:55;6.65;;;5.15;;
59972;SDS011;55298;-36.624;-64.282;2023-10-08T01:45:26;6.30;;;4.32;;
59972;SDS011;55298;-36.624;-64.282;2023-10-08T01:47:55;7.72;;;4.03;;
59972;SDS011;55298;-36.624;-64.282;2023-10-08T01:50:23;11.70;;;6.03;;
59972;SDS011;55298;-36.624;-64.282;2023-10-08T01:52:51;7.05;;;5.25;;
59972;SDS011;55298;-36.624;-64.282;2023-10-08T01:55:19;8.50;;;5.32;;
59972;SDS011;55298;-36.624;-64.282;2023-10-08T01:57:48;7.97;;;5.28;;
59972;SDS011;55298;-36.624;-64.282;2023-10-08T02:00:18;8.20;;;5.90;;
59972;SDS011;55298;-36.624;-64.282;2023-10-08T02:02:46;7.38;;;5.82;;
59972;SDS011;55298;-36.624;-64.282;2023-10-08T02:05:16;18.77;;;10.65;;
59972;SDS011;55298;-36.624;-64.282;2023-10-08T02:07:45;23.80;;;15.63;;
59972;SDS011;55298;-36.624;-64.282;2023-10-08T02:10:13;20.08;;;13.32;;
59972;SDS011;55298;-36.624;-64.282;2023-10-08T02:12:41;19.75;;;12.55;;
59972;SDS011;55298;-36.624;-64.282;2023-10-08T02:15:09;30.10;;;19.70;;
59972;SDS011;55298;-36.624;-64.282;2023-10-08T02:17:37;24.38;;;15.80;;
59972;SDS011;55298;-36.624;-64.282;2023-10-08T02:20:05;19.15;;;13.82;;
59972;SDS011;55298;-36.624;-64.282;2023-10-08T02:22:34;17.05;;;11.38;;
59972;SDS011;55298;-36.624;-64.282;2023-10-08T02:25:02;16.85;;;10.45;;
59972;SDS011;55298;-36.624;-64.282;2023-10-08T02:27:30;16.88;;;10.52;;
59972;SDS011;55298;-36.624;-64.282;2023-10-08T02:29:58;32.40;;;20.73;;
59972;SDS011;55298;-36.624;-64.282;2023-10-08T02:32:29;16.25;;;12.35;;
59972;SDS011;55298;-36.624;-64.282;2023-10-08T02:34:57;7.60;;;5.38;;
59972;SDS011;55298;-36.624;-64.282;2023-10-08T02:37:25;12.30;;;8.50;;
59972;SDS011;55298;-36.624;-64.282;2023-10-08T02:39:53;7.68;;;4.55;;
59972;SDS011;55298;-36.624;-64.282;2023-10-08T02:42:23;11.10;;;8.57;;
59972;SDS011;55298;-36.624;-64.282;2023-10-08T02:44:52;4.03;;;3.40;;
59972;SDS011;55298;-36.624;-64.282;2023-10-08T02:47:26;7.53;;;3.92;;
59972;SDS011;55298;-36.624;-64.282;2023-10-08T02:49:54;5.13;;;4.50;;
59972;SDS011;55298;-36.624;-64.282;2023-10-08T02:52:24;8.50;;;4.90;;
59972;SDS011;55298;-36.624;-64.282;2023-10-08T02:54:52;8.20;;;4.47;;
59972;SDS011;55298;-36.624;-64.282;2023-10-08T02:57:20;6.70;;;4.10;;
59972;SDS011;55298;-36.624;-64.282;2023-10-08T02:59:48;4.57;;;3.63;;
59972;SDS011;55298;-36.624;-64.282;2023-10-08T03:02:19;6.75;;;4.30;;
59972;SDS011;55298;-36.624;-64.282;2023-10-08T03:04:48;4.57;;;4.05;;
59972;SDS011;55298;-36.624;-64.282;2023-10-08T03:07:18;7.10;;;4.07;;
59972;SDS011;55298;-36.624;-64.282;2023-10-08T03:09:47;4.55;;;4.10;;
59972;SDS011;55298;-36.624;-64.282;2023-10-08T03:12:17;5.43;;;4.55;;
59972;SDS011;55298;-36.624;-64.282;2023-10-08T03:14:45;7.00;;;4.03;;
59972;SDS011;55298;-36.624;-64.282;2023-10-08T03:17:29;5.20;;;3.90;;
59972;SDS011;55298;-36.624;-64.282;2023-10-08T03:20:03;5.88;;;4.05;;
59972;SDS011;55298;-36.624;-64.282;2023-10-08T03:22:50;6.28;;;4.57;;
59972;SDS011;55298;-36.624;-64.282;2023-10-08T03:25:18;8.48;;;4.22;;
59972;SDS011;55298;-36.624;-64.282;2023-10-08T03:27:46;4.70;;;4.15;;
59972;SDS011;55298;-36.624;-64.282;2023-10-08T03:30:14;7.20;;;4.22;;
59972;SDS011;55298;-36.624;-64.282;2023-10-08T03:32:42;5.53;;;4.03;;
59972;SDS011;55298;-36.624;-64.282;2023-10-08T03:35:20;5.82;;;4.00;;
59972;SDS011;55298;-36.624;-64.282;2023-10-08T03:40:40;6.97;;;4.32;;
59972;SDS011;55298;-36.624;-64.282;2023-10-08T03:43:09;4.47;;;4.07;;
59972;SDS011;55298;-36.624;-64.282;2023-10-08T03:45:45;8.77;;;4.28;;
59972;SDS011;55298;-36.624;-64.282;2023-10-08T03:48:20;8.85;;;4.38;;
59972;SDS011;55298;-36.624;-64.282;2023-10-08T03:50:48;5.18;;;4.53;;
59972;SDS011;55298;-36.624;-64.282;2023-10-08T03:53:33;9.25;;;4.32;;
59972;SDS011;55298;-36.624;-64.282;2023-10-08T03:56:08;4.38;;;3.25;;
59972;SDS011;55298;-36.624;-64.282;2023-10-08T03:58:40;5.43;;;3.65;;
59972;SDS011;55298;-36.624;-64.282;2023-10-08T04:01:14;4.13;;;3.65;;
59972;SDS011;55298;-36.624;-64.282;2023-10-08T04:03:44;3.70;;;3.20;;
59972;SDS011;55298;-36.624;-64.282;2023-10-08T04:06:26;5.43;;;3.70;;
59972;SDS011;55298;-36.624;-64.282;2023-10-08T04:09:04;5.07;;;2.88;;
59972;SDS011;55298;-36.624;-64.282;2023-10-08T04:11:42;4.25;;;3.00;;
59972;SDS011;55298;-36.624;-64.282;2023-10-08T04:14:29;4.38;;;2.90;;
59972;SDS011;55298;-36.624;-64.282;2023-10-08T04:16:57;3.15;;;2.72;;
59972;SDS011;55298;-36.624;-64.282;2023-10-08T04:19:25;4.30;;;2.70;;
59972;SDS011;55298;-36.624;-64.282;2023-10-08T04:21:54;5.78;;;2.90;;
59972;SDS011;55298;-36.624;-64.282;2023-10-08T04:24:26;5.50;;;3.38;;
59972;SDS011;55298;-36.624;-64.282;2023-10-08T04:27:00;5.50;;;3.50;;
59972;SDS011;55298;-36.624;-64.282;2023-10-08T04:29:31;3.92;;;3.50;;
59972;SDS011;55298;-36.624;-64.282;2023-10-08T04:32:02;6.10;;;3.20;;
59972;SDS011;55298;-36.624;-64.282;2023-10-08T04:34:35;3.65;;;3.30;;
59972;SDS011;55298;-36.624;-64.282;2023-10-08T04:37:13;3.97;;;3.15;;
59972;SDS011;55298;-36.624;-64.282;2023-10-08T04:39:46;4.18;;;3.83;;
59972;SDS011;55298;-36.624;-64.282;2023-10-08T04:42:23;6.35;;;3.90;;
59972;SDS011;55298;-36.624;-64.282;2023-10-08T04:44:52;3.78;;;3.10;;
59972;SDS011;55298;-36.624;-64.282;2023-10-08T04:47:23;4.47;;;4.07;;
59972;SDS011;55298;-36.624;-64.282;2023-10-08T04:49:59;3.70;;;3.30;;
59972;SDS011;55298;-36.624;-64.282;2023-10-08T04:52:36;4.55;;;3.20;;
59972;SDS011;55298;-36.624;-64.282;2023-10-08T04:57:50;6.80;;;3.40;;
59972;SDS011;55298;-36.624;-64.282;2023-10-08T05:00:29;4.15;;;3.70;;
59972;SDS011;55298;-36.624;-64.282;2023-10-08T05:03:09;5.50;;;4.00;;
59972;SDS011;55298;-36.624;-64.282;2023-10-08T05:06:40;3.67;;;3.42;;
59972;SDS011;55298;-36.624;-64.282;2023-10-08T05:09:27;3.90;;;3.50;;
59972;SDS011;55298;-36.624;-64.282;2023-10-08T05:12:04;4.55;;;3.50;;
59972;SDS011;55298;-36.624;-64.282;2023-10-08T05:14:51;4.85;;;3.80;;
59972;SDS011;55298;-36.624;-64.282;2023-10-08T05:17:38;3.65;;;3.05;;
59972;SDS011;55298;-36.624;-64.282;2023-10-08T05:20:16;5.10;;;3.47;;
59972;SDS011;55298;-36.624;-64.282;2023-10-08T05:22:54;4.07;;;3.78;;
59972;SDS011;55298;-36.624;-64.282;2023-10-08T05:25:48;4.45;;;4.05;;
59972;SDS011;55298;-36.624;-64.282;2023-10-08T05:29:02;4.38;;;3.70;;
59972;SDS011;55298;-36.624;-64.282;2023-10-08T05:31:58;4.95;;;3.53;;
59972;SDS011;55298;-36.624;-64.282;2023-10-08T05:35:15;4.82;;;3.00;;
59972;SDS011;55298;-36.624;-64.282;2023-10-08T05:37:57;3.85;;;3.10;;
59972;SDS011;55298;-36.624;-64.282;2023-10-08T05:40:41;3.20;;;3.00;;
59972;SDS011;55298;-36.624;-64.282;2023-10-08T05:43:36;4.22;;;3.17;;
59972;SDS011;55298;-36.624;-64.282;2023-10-08T05:46:23;3.83;;;2.80;;
59972;SDS011;55298;-36.624;-64.282;2023-10-08T05:49:35;3.25;;;2.90;;
59972;SDS011;55298;-36.624;-64.282;2023-10-08T05:52:08;3.80;;;2.90;;
59972;SDS011;55298;-36.624;-64.282;2023-10-08T05:54:51;3.47;;;2.88;;
59972;SDS011;55298;-36.624;-64.282;2023-10-08T05:57:28;10.05;;;3.50;;
59972;SDS011;55298;-36.624;-64.282;2023-10-08T06:00:07;4.25;;;3.22;;
59972;SDS011;55298;-36.624;-64.282;2023-10-08T06:02:47;3.75;;;2.92;;
59972;SDS011;55298;-36.624;-64.282;2023-10-08T06:05:38;3.30;;;2.97;;
59972;SDS011;55298;-36.624;-64.282;2023-10-08T06:08:25;2.90;;;2.70;;
59972;SDS011;55298;-36.624;-64.282;2023-10-08T06:11:08;2.97;;;2.78;;
59972;SDS011;55298;-36.624;-64.282;2023-10-08T06:14:04;3.25;;;2.95;;
59972;SDS011;55298;-36.624;-64.282;2023-10-08T06:16:56;2.70;;;2.50;;
59972;SDS011;55298;-36.624;-64.282;2023-10-08T06:19:47;3.80;;;3.00;;
59972;SDS011;55298;-36.624;-64.282;2023-10-08T06:22:46;2.88;;;2.60;;
59972;SDS011;55298;-36.624;-64.282;2023-10-08T06:25:13;3.17;;;2.70;;
59972;SDS011;55298;-36.624;-64.282;2023-10-08T06:27:44;2.45;;;2.25;;
59972;SDS011;55298;-36.624;-64.282;2023-10-08T06:30:12;2.70;;;2.60;;
59972;SDS011;55298;-36.624;-64.282;2023-10-08T06:33:02;2.35;;;2.25;;
59972;SDS011;55298;-36.624;-64.282;2023-10-08T06:35:30;2.75;;;2.55;;
59972;SDS011;55298;-36.624;-64.282;2023-10-08T06:37:58;2.58;;;2.38;;
59972;SDS011;55298;-36.624;-64.282;2023-10-08T06:40:34;2.70;;;2.42;;
59972;SDS011;55298;-36.624;-64.282;2023-10-08T06:43:10;2.60;;;2.50;;
59972;SDS011;55298;-36.624;-64.282;2023-10-08T06:45:50;3.15;;;2.88;;
59972;SDS011;55298;-36.624;-64.282;2023-10-08T06:48:20;2.75;;;2.55;;
59972;SDS011;55298;-36.624;-64.282;2023-10-08T06:50:50;2.50;;;2.40;;
59972;SDS011;55298;-36.624;-64.282;2023-10-08T06:53:22;3.00;;;2.80;;
59972;SDS011;55298;-36.624;-64.282;2023-10-08T06:55:55;3.38;;;2.90;;
59972;SDS011;55298;-36.624;-64.282;2023-10-08T06:58:27;3.03;;;2.47;;
59972;SDS011;55298;-36.624;-64.282;2023-10-08T07:00:57;3.33;;;2.70;;
59972;SDS011;55298;-36.624;-64.282;2023-10-08T07:06:09;2.63;;;2.45;;
59972;SDS011;55298;-36.624;-64.282;2023-10-08T07:08:48;3.55;;;2.53;;
59972;SDS011;55298;-36.624;-64.282;2023-10-08T07:11:21;3.25;;;2.88;;
59972;SDS011;55298;-36.624;-64.282;2023-10-08T07:13:48;3.45;;;2.90;;
59972;SDS011;55298;-36.624;-64.282;2023-10-08T07:16:19;11.90;;;3.60;;
59972;SDS011;55298;-36.624;-64.282;2023-10-08T07:18:47;2.53;;;2.33;;
59972;SDS011;55298;-36.624;-64.282;2023-10-08T07:21:17;3.30;;;3.10;;
59972;SDS011;55298;-36.624;-64.282;2023-10-08T07:23:55;3.15;;;2.63;;
59972;SDS011;55298;-36.624;-64.282;2023-10-08T07:26:25;2.60;;;2.40;;
59972;SDS011;55298;-36.624;-64.282;2023-10-08T07:29:02;2.72;;;2.45;;
59972;SDS011;55298;-36.624;-64.282;2023-10-08T07:31:36;2.88;;;2.67;;
59972;SDS011;55298;-36.624;-64.282;2023-10-08T07:34:07;4.57;;;3.40;;
59972;SDS011;55298;-36.624;-64.282;2023-10-08T07:36:46;4.95;;;3.10;;
59972;SDS011;55298;-36.624;-64.282;2023-10-08T07:39:15;7.53;;;3.83;;
59972;SDS011;55298;-36.624;-64.282;2023-10-08T07:41:53;8.05;;;3.78;;
59972;SDS011;55298;-36.624;-64.282;2023-10-08T07:44:22;5.50;;;2.97;;
59972;SDS011;55298;-36.624;-64.282;2023-10-08T07:46:54;5.10;;;3.00;;
59972;SDS011;55298;-36.624;-64.282;2023-10-08T07:49:23;3.95;;;2.83;;
59972;SDS011;55298;-36.624;-64.282;2023-10-08T07:51:52;3.78;;;2.90;;
59972;SDS011;55298;-36.624;-64.282;2023-10-08T07:54:21;7.32;;;3.30;;
59972;SDS011;55298;-36.624;-64.282;2023-10-08T07:56:53;3.20;;;2.47;;
59972;SDS011;55298;-36.624;-64.282;2023-10-08T07:59:31;6.70;;;3.28;;
59972;SDS011;55298;-36.624;-64.282;2023-10-08T08:01:58;5.13;;;2.53;;
59972;SDS011;55298;-36.624;-64.282;2023-10-08T08:04:26;6.00;;;3.00;;
59972;SDS011;55298;-36.624;-64.282;2023-10-08T08:06:58;3.63;;;3.30;;
59972;SDS011;55298;-36.624;-64.282;2023-10-08T08:09:30;3.13;;;2.70;;
59972;SDS011;55298;-36.624;-64.282;2023-10-08T08:12:05;5.68;;;3.45;;
59972;SDS011;55298;-36.624;-64.282;2023-10-08T08:14:37;4.03;;;2.90;;
59972;SDS011;55298;-36.624;-64.282;2023-10-08T08:17:07;3.50;;;2.60;;
59972;SDS011;55298;-36.624;-64.282;2023-10-08T08:19:43;2.90;;;2.60;;
59972;SDS011;55298;-36.624;-64.282;2023-10-08T08:22:16;3.13;;;2.83;;
59972;SDS011;55298;-36.624;-64.282;2023-10-08T08:24:48;5.53;;;2.85;;
59972;SDS011;55298;-36.624;-64.282;2023-10-08T08:27:21;4.65;;;2.60;;
59972;SDS011;55298;-36.624;-64.282;2023-10-08T08:29:57;3.22;;;2.38;;
59972;SDS011;55298;-36.624;-64.282;2023-10-08T08:32:41;3.08;;;2.88;;
59972;SDS011;55298;-36.624;-64.282;2023-10-08T08:35:14;3.05;;;2.85;;
59972;SDS011;55298;-36.624;-64.282;2023-10-08T08:37:42;4.22;;;2.90;;
59972;SDS011;55298;-36.624;-64.282;2023-10-08T08:40:12;2.78;;;2.58;;
59972;SDS011;55298;-36.624;-64.282;2023-10-08T08:42:44;3.08;;;2.78;;
59972;SDS011;55298;-36.624;-64.282;2023-10-08T08:45:22;10.57;;;3.20;;
59972;SDS011;55298;-36.624;-64.282;2023-10-08T08:47:53;3.58;;;2.67;;
59972;SDS011;55298;-36.624;-64.282;2023-10-08T08:50:27;2.75;;;2.65;;
59972;SDS011;55298;-36.624;-64.282;2023-10-08T08:52:56;4.60;;;2.38;;
59972;SDS011;55298;-36.624;-64.282;2023-10-08T08:55:25;2.80;;;2.60;;
59972;SDS011;55298;-36.624;-64.282;2023-10-08T09:10:57;3.40;;;2.92;;
59972;SDS011;55298;-36.624;-64.282;2023-10-08T09:21:17;7.53;;;2.83;;
59972;SDS011;55298;-36.624;-64.282;2023-10-08T09:23:50;6.47;;;2.60;;
59972;SDS011;55298;-36.624;-64.282;2023-10-08T09:26:22;3.80;;;2.90;;
59972;SDS011;55298;-36.624;-64.282;2023-10-08T09:28:57;4.47;;;3.30;;
59972;SDS011;55298;-36.624;-64.282;2023-10-08T09:31:28;4.47;;;2.72;;
59972;SDS011;55298;-36.624;-64.282;2023-10-08T09:34:05;2.90;;;2.67;;
59972;SDS011;55298;-36.624;-64.282;2023-10-08T09:36:57;5.97;;;2.75;;
59972;SDS011;55298;-36.624;-64.282;2023-10-08T09:39:48;3.30;;;3.00;;
59972;SDS011;55298;-36.624;-64.282;2023-10-08T09:42:22;4.85;;;2.67;;
59972;SDS011;55298;-36.624;-64.282;2023-10-08T09:44:54;2.92;;;2.70;;
59972;SDS011;55298;-36.624;-64.282;2023-10-08T09:47:23;3.78;;;3.08;;
59972;SDS011;55298;-36.624;-64.282;2023-10-08T09:49:56;4.13;;;3.17;;
59972;SDS011;55298;-36.624;-64.282;2023-10-08T09:52:36;3.42;;;3.05;;
59972;SDS011;55298;-36.624;-64.282;2023-10-08T09:55:15;2.95;;;2.75;;
59972;SDS011;55298;-36.624;-64.282;2023-10-08T09:57:45;3.33;;;3.03;;
59972;SDS011;55298;-36.624;-64.282;2023-10-08T10:00:16;3.17;;;2.72;;
59972;SDS011;55298;-36.624;-64.282;2023-10-08T10:02:55;8.55;;;3.55;;
59972;SDS011;55298;-36.624;-64.282;2023-10-08T10:05:30;5.32;;;3.08;;
59972;SDS011;55298;-36.624;-64.282;2023-10-08T10:08:02;7.85;;;3.05;;
59972;SDS011;55298;-36.624;-64.282;2023-10-08T10:10:32;3.20;;;3.00;;
59972;SDS011;55298;-36.624;-64.282;2023-10-08T10:13:02;3.92;;;2.83;;
59972;SDS011;55298;-36.624;-64.282;2023-10-08T10:15:36;5.43;;;2.97;;
59972;SDS011;55298;-36.624;-64.282;2023-10-08T10:18:08;3.47;;;3.10;;
59972;SDS011;55298;-36.624;-64.282;2023-10-08T10:20:51;3.53;;;2.80;;
59972;SDS011;55298;-36.624;-64.282;2023-10-08T10:31:52;3.35;;;3.10;;
59972;SDS011;55298;-36.624;-64.282;2023-10-08T10:34:24;3.35;;;3.03;;
59972;SDS011;55298;-36.624;-64.282;2023-10-08T10:36:55;3.17;;;2.80;;
59972;SDS011;55298;-36.624;-64.282;2023-10-08T10:39:28;11.25;;;4.05;;
59972;SDS011;55298;-36.624;-64.282;2023-10-08T10:42:00;2.72;;;2.63;;
59972;SDS011;55298;-36.624;-64.282;2023-10-08T10:44:32;4.80;;;2.53;;
59972;SDS011;55298;-36.624;-64.282;2023-10-08T10:47:04;4.40;;;2.53;;
59972;SDS011;55298;-36.624;-64.282;2023-10-08T10:49:42;4.93;;;2.55;;
59972;SDS011;55298;-36.624;-64.282;2023-10-08T10:52:23;2.85;;;2.17;;
59972;SDS011;55298;-36.624;-64.282;2023-10-08T10:55:02;2.70;;;2.17;;
59972;SDS011;55298;-36.624;-64.282;2023-10-08T10:57:51;3.03;;;2.72;;
59972;SDS011;55298;-36.624;-64.282;2023-10-08T11:00:22;2.53;;;2.33;;
59972;SDS011;55298;-36.624;-64.282;2023-10-08T11:03:10;7.05;;;2.05;;
59972;SDS011;55298;-36.624;-64.282;2023-10-08T11:05:48;2.72;;;2.53;;
59972;SDS011;55298;-36.624;-64.282;2023-10-08T11:08:20;3.10;;;2.25;;
59972;SDS011;55298;-36.624;-64.282;2023-10-08T11:13:15;3.55;;;1.98;;
59972;SDS011;55298;-36.624;-64.282;2023-10-08T11:15:44;3.55;;;1.70;;
59972;SDS011;55298;-36.624;-64.282;2023-10-08T11:18:18;4.28;;;2.22;;
59972;SDS011;55298;-36.624;-64.282;2023-10-08T11:20:49;3.80;;;2.05;;
59972;SDS011;55298;-36.624;-64.282;2023-10-08T11:23:33;4.80;;;2.22;;
59972;SDS011;55298;-36.624;-64.282;2023-10-08T11:26:03;3.17;;;1.73;;
59972;SDS011;55298;-36.624;-64.282;2023-10-08T11:28:33;3.63;;;1.85;;
59972;SDS011;55298;-36.624;-64.282;2023-10-08T11:31:09;2.30;;;2.10;;
59972;SDS011;55298;-36.624;-64.282;2023-10-08T11:33:39;2.10;;;1.88;;
59972;SDS011;55298;-36.624;-64.282;2023-10-08T11:36:08;2.53;;;2.10;;
59972;SDS011;55298;-36.624;-64.282;2023-10-08T11:38:45;4.82;;;2.63;;
59972;SDS011;55298;-36.624;-64.282;2023-10-08T11:41:16;3.15;;;2.20;;
59972;SDS011;55298;-36.624;-64.282;2023-10-08T11:43:48;4.38;;;1.70;;
59972;SDS011;55298;-36.624;-64.282;2023-10-08T11:46:26;10.80;;;2.92;;
59972;SDS011;55298;-36.624;-64.282;2023-10-08T11:49:05;4.40;;;1.95;;
59972;SDS011;55298;-36.624;-64.282;2023-10-08T11:51:34;7.10;;;1.85;;
59972;SDS011;55298;-36.624;-64.282;2023-10-08T11:54:02;4.80;;;2.55;;
59972;SDS011;55298;-36.624;-64.282;2023-10-08T11:56:31;2.20;;;2.00;;
59972;SDS011;55298;-36.624;-64.282;2023-10-08T11:59:02;3.72;;;1.90;;
59972;SDS011;55298;-36.624;-64.282;2023-10-08T12:01:37;6.63;;;2.15;;
59972;SDS011;55298;-36.624;-64.282;2023-10-08T12:04:09;4.53;;;2.60;;
59972;SDS011;55298;-36.624;-64.282;2023-10-08T12:06:40;5.43;;;2.30;;
59972;SDS011;55298;-36.624;-64.282;2023-10-08T12:09:13;2.50;;;2.30;;
59972;SDS011;55298;-36.624;-64.282;2023-10-08T12:11:41;4.18;;;2.55;;
59972;SDS011;55298;-36.624;-64.282;2023-10-08T12:14:09;5.90;;;2.50;;
59972;SDS011;55298;-36.624;-64.282;2023-10-08T12:16:37;5.30;;;2.50;;
59972;SDS011;55298;-36.624;-64.282;2023-10-08T12:19:07;6.38;;;2.50;;
59972;SDS011;55298;-36.624;-64.282;2023-10-08T12:21:42;5.85;;;2.50;;
59972;SDS011;55298;-36.624;-64.282;2023-10-08T12:24:13;3.78;;;2.72;;
59972;SDS011;55298;-36.624;-64.282;2023-10-08T12:26:42;4.82;;;2.90;;
59972;SDS011;55298;-36.624;-64.282;2023-10-08T12:29:13;8.32;;;3.00;;
59972;SDS011;55298;-36.624;-64.282;2023-10-08T12:31:42;4.13;;;2.90;;
59972;SDS011;55298;-36.624;-64.282;2023-10-08T12:34:14;4.72;;;2.70;;
59972;SDS011;55298;-36.624;-64.282;2023-10-08T12:36:42;3.65;;;2.60;;
59972;SDS011;55298;-36.624;-64.282;2023-10-08T12:39:11;3.05;;;2.50;;
59972;SDS011;55298;-36.624;-64.282;2023-10-08T12:41:42;7.22;;;3.10;;
59972;SDS011;55298;-36.624;-64.282;2023-10-08T12:44:11;2.65;;;2.42;;
59972;SDS011;55298;-36.624;-64.282;2023-10-08T12:46:41;4.75;;;2.45;;
59972;SDS011;55298;-36.624;-64.282;2023-10-08T12:49:09;3.70;;;2.40;;
59972;SDS011;55298;-36.624;-64.282;2023-10-08T12:51:37;3.58;;;2.60;;
59972;SDS011;55298;-36.624;-64.282;2023-10-08T12:54:07;3.88;;;2.33;;
59972;SDS011;55298;-36.624;-64.282;2023-10-08T12:56:37;3.90;;;2.10;;
59972;SDS011;55298;-36.624;-64.282;2023-10-08T12:59:11;3.90;;;2.28;;
59972;SDS011;55298;-36.624;-64.282;2023-10-08T13:01:52;4.93;;;2.10;;
59972;SDS011;55298;-36.624;-64.282;2023-10-08T13:04:20;2.00;;;1.90;;
59972;SDS011;55298;-36.624;-64.282;2023-10-08T13:07:00;5.80;;;2.35;;
59972;SDS011;55298;-36.624;-64.282;2023-10-08T13:09:29;2.95;;;2.08;;
59972;SDS011;55298;-36.624;-64.282;2023-10-08T13:11:56;3.78;;;2.00;;
59972;SDS011;55298;-36.624;-64.282;2023-10-08T13:14:25;4.20;;;2.60;;
59972;SDS011;55298;-36.624;-64.282;2023-10-08T13:16:53;4.30;;;2.25;;
59972;SDS011;55298;-36.624;-64.282;2023-10-08T13:19:21;4.25;;;1.90;;
59972;SDS011;55298;-36.624;-64.282;2023-10-08T13:21:49;3.30;;;1.58;;
59972;SDS011;55298;-36.624;-64.282;2023-10-08T13:24:19;3.67;;;1.90;;
59972;SDS011;55298;-36.624;-64.282;2023-10-08T13:26:47;1.70;;;1.60;;
59972;SDS011;55298;-36.624;-64.282;2023-10-08T13:29:16;3.58;;;1.70;;
59972;SDS011;55298;-36.624;-64.282;2023-10-08T13:31:44;2.85;;;2.28;;
59972;SDS011;55298;-36.624;-64.282;2023-10-08T13:34:11;3.60;;;1.70;;
59972;SDS011;55298;-36.624;-64.282;2023-10-08T13:36:41;4.22;;;1.92;;
59972;SDS011;55298;-36.624;-64.282;2023-10-08T13:39:12;4.53;;;2.00;;
59972;SDS011;55298;-36.624;-64.282;2023-10-08T13:41:44;2.05;;;1.80;;
59972;SDS011;55298;-36.624;-64.282;2023-10-08T13:44:14;3.15;;;1.70;;
59972;SDS011;55298;-36.624;-64.282;2023-10-08T13:46:42;2.88;;;1.85;;
59972;SDS011;55298;-36.624;-64.282;2023-10-08T13:49:15;1.77;;;1.60;;
59972;SDS011;55298;-36.624;-64.282;2023-10-08T13:51:44;4.10;;;1.80;;
59972;SDS011;55298;-36.624;-64.282;2023-10-08T13:54:12;3.65;;;1.63;;
59972;SDS011;55298;-36.624;-64.282;2023-10-08T13:56:40;4.40;;;2.25;;
59972;SDS011;55298;-36.624;-64.282;2023-10-08T13:59:14;2.22;;;1.67;;
59972;SDS011;55298;-36.624;-64.282;2023-10-08T14:01:43;5.90;;;1.90;;
59972;SDS011;55298;-36.624;-64.282;2023-10-08T14:04:14;4.05;;;1.75;;
59972;SDS011;55298;-36.624;-64.282;2023-10-08T14:06:45;6.72;;;2.10;;
59972;SDS011;55298;-36.624;-64.282;2023-10-08T14:09:17;2.00;;;1.70;;
59972;SDS011;55298;-36.624;-64.282;2023-10-08T14:11:48;2.65;;;1.63;;
59972;SDS011;55298;-36.624;-64.282;2023-10-08T14:14:18;2.67;;;1.67;;
59972;SDS011;55298;-36.624;-64.282;2023-10-08T14:16:50;3.20;;;1.60;;
59972;SDS011;55298;-36.624;-64.282;2023-10-08T14:19:19;2.58;;;1.80;;
59972;SDS011;55298;-36.624;-64.282;2023-10-08T14:21:54;2.95;;;1.85;;
59972;SDS011;55298;-36.624;-64.282;2023-10-08T14:24:29;1.95;;;1.80;;
59972;SDS011;55298;-36.624;-64.282;2023-10-08T14:27:01;2.60;;;1.67;;
59972;SDS011;55298;-36.624;-64.282;2023-10-08T14:29:38;1.83;;;1.60;;
59972;SDS011;55298;-36.624;-64.282;2023-10-08T14:32:07;2.90;;;1.80;;
59972;SDS011;55298;-36.624;-64.282;2023-10-08T14:34:36;1.73;;;1.45;;
59972;SDS011;55298;-36.624;-64.282;2023-10-08T14:37:13;3.25;;;1.80;;
59972;SDS011;55298;-36.624;-64.282;2023-10-08T14:39:51;3.65;;;1.65;;
59972;SDS011;55298;-36.624;-64.282;2023-10-08T14:42:28;4.25;;;1.90;;
59972;SDS011;55298;-36.624;-64.282;2023-10-08T14:45:05;2.72;;;1.52;;
59972;SDS011;55298;-36.624;-64.282;2023-10-08T14:47:37;7.35;;;2.60;;
59972;SDS011;55298;-36.624;-64.282;2023-10-08T14:50:05;2.30;;;1.65;;
59972;SDS011;55298;-36.624;-64.282;2023-10-08T14:52:43;1.55;;;1.45;;
59972;SDS011;55298;-36.624;-64.282;2023-10-08T14:55:12;1.73;;;1.42;;
59972;SDS011;55298;-36.624;-64.282;2023-10-08T14:57:42;2.03;;;1.48;;
59972;SDS011;55298;-36.624;-64.282;2023-10-08T15:00:10;4.60;;;1.40;;
59972;SDS011;55298;-36.624;-64.282;2023-10-08T15:02:39;1.88;;;1.20;;
59972;SDS011;55298;-36.624;-64.282;2023-10-08T15:05:08;3.33;;;1.77;;
59972;SDS011;55298;-36.624;-64.282;2023-10-08T15:07:36;3.50;;;1.98;;
59972;SDS011;55298;-36.624;-64.282;2023-10-08T15:10:05;3.85;;;1.90;;
59972;SDS011;55298;-36.624;-64.282;2023-10-08T15:12:34;4.05;;;2.17;;
59972;SDS011;55298;-36.624;-64.282;2023-10-08T15:15:03;3.20;;;1.40;;
59972;SDS011;55298;-36.624;-64.282;2023-10-08T15:17:45;2.88;;;2.25;;
59972;SDS011;55298;-36.624;-64.282;2023-10-08T15:20:15;1.52;;;1.40;;
59972;SDS011;55298;-36.624;-64.282;2023-10-08T15:22:46;2.17;;;1.88;;
59972;SDS011;55298;-36.624;-64.282;2023-10-08T15:25:16;3.63;;;2.13;;